sensor_id;sensor_type;location;lat;lon;timestamp;temperature;humidity
48043;DHT22;33988;47.992;8.820;2022-10-26T00:01:24;15.70;69.10
48043;DHT22;33988;47.992;8.820;2022-10-26T00:03:54;15.70;68.30
48043;DHT22;33988;47.992;8.820;2022-10-26T00:06:25;15.70;68.30
48043;DHT22;33988;47.992;8.820;2022-10-26T00:08:55;15.70;68.30
48043;DHT22;33988;47.992;8.820;2022-10-26T00:11:23;15.70;68.30
48043;DHT22;33988;47.992;8.820;2022-10-26T00:13:53;15.70;68.40
48043;DHT22;33988;47.992;8.820;2022-10-26T00:16:23;15.70;68.40
48043;DHT22;33988;47.992;8.820;2022-10-26T00:18:53;15.70;68.40
48043;DHT22;33988;47.992;8.820;2022-10-26T00:21:20;15.70;68.50
48043;DHT22;33988;47.992;8.820;2022-10-26T00:23:52;15.70;68.50
48043;DHT22;33988;47.992;8.820;2022-10-26T00:26:19;15.70;68.50
48043;DHT22;33988;47.992;8.820;2022-10-26T00:28:46;15.70;68.60
48043;DHT22;33988;47.992;8.820;2022-10-26T00:31:16;15.70;68.60
48043;DHT22;33988;47.992;8.820;2022-10-26T00:33:43;15.70;68.60
48043;DHT22;33988;47.992;8.820;2022-10-26T00:36:11;15.80;68.60
48043;DHT22;33988;47.992;8.820;2022-10-26T00:38:46;15.80;68.60
48043;DHT22;33988;47.992;8.820;2022-10-26T00:41:25;15.80;68.60
48043;DHT22;33988;47.992;8.820;2022-10-26T00:43:54;15.70;68.50
48043;DHT22;33988;47.992;8.820;2022-10-26T00:46:34;15.80;68.60
48043;DHT22;33988;47.992;8.820;2022-10-26T00:49:12;15.70;68.60
48043;DHT22;33988;47.992;8.820;2022-10-26T00:51:50;15.70;68.50
48043;DHT22;33988;47.992;8.820;2022-10-26T00:54:21;15.70;68.50
48043;DHT22;33988;47.992;8.820;2022-10-26T00:56:50;15.70;68.50
48043;DHT22;33988;47.992;8.820;2022-10-26T00:59:20;15.70;68.40
48043;DHT22;33988;47.992;8.820;2022-10-26T01:01:53;15.70;68.60
48043;DHT22;33988;47.992;8.820;2022-10-26T01:04:26;15.70;68.50
48043;DHT22;33988;47.992;8.820;2022-10-26T01:06:53;15.70;68.50
48043;DHT22;33988;47.992;8.820;2022-10-26T01:09:21;15.70;68.50
48043;DHT22;33988;47.992;8.820;2022-10-26T01:11:50;15.70;68.60
48043;DHT22;33988;47.992;8.820;2022-10-26T01:14:18;15.70;68.60
48043;DHT22;33988;47.992;8.820;2022-10-26T01:31:55;15.50;68.80
48043;DHT22;33988;47.992;8.820;2022-10-26T01:34:51;15.60;68.80
48043;DHT22;33988;47.992;8.820;2022-10-26T01:37:46;15.60;68.80
48043;DHT22;33988;47.992;8.820;2022-10-26T01:40:27;15.60;68.80
48043;DHT22;33988;47.992;8.820;2022-10-26T01:43:01;15.50;68.70
48043;DHT22;33988;47.992;8.820;2022-10-26T01:45:31;15.50;68.60
48043;DHT22;33988;47.992;8.820;2022-10-26T01:48:01;15.50;68.60
48043;DHT22;33988;47.992;8.820;2022-10-26T01:50:33;15.50;68.60
48043;DHT22;33988;47.992;8.820;2022-10-26T01:53:00;15.50;68.60
48043;DHT22;33988;47.992;8.820;2022-10-26T01:55:43;15.50;68.70
48043;DHT22;33988;47.992;8.820;2022-10-26T01:58:38;15.50;68.90
48043;DHT22;33988;47.992;8.820;2022-10-26T02:01:41;15.40;68.90
48043;DHT22;33988;47.992;8.820;2022-10-26T02:12:49;15.40;69.10
48043;DHT22;33988;47.992;8.820;2022-10-26T02:15:38;15.40;69.30
48043;DHT22;33988;47.992;8.820;2022-10-26T02:21:16;15.50;69.40
48043;DHT22;33988;47.992;8.820;2022-10-26T02:23:47;15.50;69.40
48043;DHT22;33988;47.992;8.820;2022-10-26T02:26:23;15.50;69.30
48043;DHT22;33988;47.992;8.820;2022-10-26T02:28:53;15.50;69.30
48043;DHT22;33988;47.992;8.820;2022-10-26T02:31:23;15.50;69.40
48043;DHT22;33988;47.992;8.820;2022-10-26T02:33:54;15.50;69.50
48043;DHT22;33988;47.992;8.820;2022-10-26T02:36:25;15.50;69.50
48043;DHT22;33988;47.992;8.820;2022-10-26T02:38:56;15.50;69.50
48043;DHT22;33988;47.992;8.820;2022-10-26T02:41:27;15.50;69.60
48043;DHT22;33988;47.992;8.820;2022-10-26T02:44:11;15.50;69.70
48043;DHT22;33988;47.992;8.820;2022-10-26T02:46:50;15.60;69.90
48043;DHT22;33988;47.992;8.820;2022-10-26T02:49:21;15.60;70.70
48043;DHT22;33988;47.992;8.820;2022-10-26T02:51:58;15.60;69.90
48043;DHT22;33988;47.992;8.820;2022-10-26T02:54:34;15.60;69.90
48043;DHT22;33988;47.992;8.820;2022-10-26T02:57:16;15.70;70.00
48043;DHT22;33988;47.992;8.820;2022-10-26T02:59:49;15.70;70.10
48043;DHT22;33988;47.992;8.820;2022-10-26T03:02:18;15.80;70.00
48043;DHT22;33988;47.992;8.820;2022-10-26T03:04:48;15.80;70.00
48043;DHT22;33988;47.992;8.820;2022-10-26T03:07:21;15.80;70.00
48043;DHT22;33988;47.992;8.820;2022-10-26T03:09:50;15.80;70.00
48043;DHT22;33988;47.992;8.820;2022-10-26T03:12:22;15.90;69.90
48043;DHT22;33988;47.992;8.820;2022-10-26T03:14:53;15.80;69.80
48043;DHT22;33988;47.992;8.820;2022-10-26T03:17:22;15.90;69.90
48043;DHT22;33988;47.992;8.820;2022-10-26T03:19:49;15.90;69.90
48043;DHT22;33988;47.992;8.820;2022-10-26T03:22:16;15.90;69.90
48043;DHT22;33988;47.992;8.820;2022-10-26T03:24:43;16.00;70.00
48043;DHT22;33988;47.992;8.820;2022-10-26T03:27:09;15.90;69.90
48043;DHT22;33988;47.992;8.820;2022-10-26T03:29:36;16.00;69.90
48043;DHT22;33988;47.992;8.820;2022-10-26T03:32:08;16.00;69.90
48043;DHT22;33988;47.992;8.820;2022-10-26T03:34:38;15.80;70.20
48043;DHT22;33988;47.992;8.820;2022-10-26T03:37:07;16.00;70.00
48043;DHT22;33988;47.992;8.820;2022-10-26T03:39:34;16.00;69.90
48043;DHT22;33988;47.992;8.820;2022-10-26T03:42:04;16.00;69.80
48043;DHT22;33988;47.992;8.820;2022-10-26T03:44:31;16.00;69.80
48043;DHT22;33988;47.992;8.820;2022-10-26T03:46:58;16.00;69.70
48043;DHT22;33988;47.992;8.820;2022-10-26T03:49:25;16.00;69.80
48043;DHT22;33988;47.992;8.820;2022-10-26T03:51:56;16.00;69.80
48043;DHT22;33988;47.992;8.820;2022-10-26T03:54:26;16.00;69.70
48043;DHT22;33988;47.992;8.820;2022-10-26T03:56:53;16.00;69.70
48043;DHT22;33988;47.992;8.820;2022-10-26T03:59:24;16.00;70.60
48043;DHT22;33988;47.992;8.820;2022-10-26T04:01:51;16.00;69.70
48043;DHT22;33988;47.992;8.820;2022-10-26T04:04:23;16.00;69.60
48043;DHT22;33988;47.992;8.820;2022-10-26T04:06:52;16.00;69.60
48043;DHT22;33988;47.992;8.820;2022-10-26T04:09:19;16.00;69.60
48043;DHT22;33988;47.992;8.820;2022-10-26T04:11:49;16.00;69.60
48043;DHT22;33988;47.992;8.820;2022-10-26T04:14:16;16.00;69.60
48043;DHT22;33988;47.992;8.820;2022-10-26T04:16:43;16.00;69.60
48043;DHT22;33988;47.992;8.820;2022-10-26T04:19:12;16.00;69.60
48043;DHT22;33988;47.992;8.820;2022-10-26T04:21:39;15.90;69.60
48043;DHT22;33988;47.992;8.820;2022-10-26T04:24:06;16.00;69.70
48043;DHT22;33988;47.992;8.820;2022-10-26T04:26:35;15.90;69.70
48043;DHT22;33988;47.992;8.820;2022-10-26T04:29:06;16.00;69.70
48043;DHT22;33988;47.992;8.820;2022-10-26T04:31:37;16.00;69.70
48043;DHT22;33988;47.992;8.820;2022-10-26T04:34:04;15.90;69.80
48043;DHT22;33988;47.992;8.820;2022-10-26T04:36:33;15.90;69.70
48043;DHT22;33988;47.992;8.820;2022-10-26T04:39:00;15.90;69.70
48043;DHT22;33988;47.992;8.820;2022-10-26T04:41:27;15.90;69.80
48043;DHT22;33988;47.992;8.820;2022-10-26T04:43:56;15.90;69.80
48043;DHT22;33988;47.992;8.820;2022-10-26T04:46:24;16.00;69.90
48043;DHT22;33988;47.992;8.820;2022-10-26T04:48:58;16.00;69.90
48043;DHT22;33988;47.992;8.820;2022-10-26T04:51:27;15.90;69.80
48043;DHT22;33988;47.992;8.820;2022-10-26T04:53:54;15.80;70.10
48043;DHT22;33988;47.992;8.820;2022-10-26T04:56:23;15.90;69.90
48043;DHT22;33988;47.992;8.820;2022-10-26T04:58:53;15.90;69.80
48043;DHT22;33988;47.992;8.820;2022-10-26T05:01:20;15.90;69.80
48043;DHT22;33988;47.992;8.820;2022-10-26T05:03:54;15.90;69.80
48043;DHT22;33988;47.992;8.820;2022-10-26T05:06:21;16.00;69.90
48043;DHT22;33988;47.992;8.820;2022-10-26T05:08:50;15.90;69.80
48043;DHT22;33988;47.992;8.820;2022-10-26T05:11:17;15.90;69.90
48043;DHT22;33988;47.992;8.820;2022-10-26T05:13:46;15.90;69.90
48043;DHT22;33988;47.992;8.820;2022-10-26T05:16:17;15.90;70.00
48043;DHT22;33988;47.992;8.820;2022-10-26T05:18:47;16.00;70.00
48043;DHT22;33988;47.992;8.820;2022-10-26T05:21:16;16.00;70.00
48043;DHT22;33988;47.992;8.820;2022-10-26T05:23:52;16.00;70.00
48043;DHT22;33988;47.992;8.820;2022-10-26T05:26:25;15.90;70.00
48043;DHT22;33988;47.992;8.820;2022-10-26T05:28:54;16.00;70.10
48043;DHT22;33988;47.992;8.820;2022-10-26T05:31:21;16.00;70.30
48043;DHT22;33988;47.992;8.820;2022-10-26T05:33:49;16.00;70.40
48043;DHT22;33988;47.992;8.820;2022-10-26T05:36:21;16.00;70.60
48043;DHT22;33988;47.992;8.820;2022-10-26T05:38:48;16.00;70.80
48043;DHT22;33988;47.992;8.820;2022-10-26T05:41:15;16.10;70.90
48043;DHT22;33988;47.992;8.820;2022-10-26T05:43:47;16.10;71.00
48043;DHT22;33988;47.992;8.820;2022-10-26T05:46:14;16.10;71.00
48043;DHT22;33988;47.992;8.820;2022-10-26T05:48:41;16.20;71.20
48043;DHT22;33988;47.992;8.820;2022-10-26T05:51:08;16.20;71.20
48043;DHT22;33988;47.992;8.820;2022-10-26T05:53:36;16.20;71.20
48043;DHT22;33988;47.992;8.820;2022-10-26T05:56:16;16.30;71.30
48043;DHT22;33988;47.992;8.820;2022-10-26T05:58:46;16.30;71.30
48043;DHT22;33988;47.992;8.820;2022-10-26T06:04:28;16.40;71.20
48043;DHT22;33988;47.992;8.820;2022-10-26T06:07:18;16.40;71.30
48043;DHT22;33988;47.992;8.820;2022-10-26T06:09:49;16.40;71.20
48043;DHT22;33988;47.992;8.820;2022-10-26T06:12:17;16.40;70.90
48043;DHT22;33988;47.992;8.820;2022-10-26T06:14:45;16.50;70.90
48043;DHT22;33988;47.992;8.820;2022-10-26T06:20:42;16.50;70.90
48043;DHT22;33988;47.992;8.820;2022-10-26T06:23:35;16.50;70.70
48043;DHT22;33988;47.992;8.820;2022-10-26T06:27:03;16.50;70.60
48043;DHT22;33988;47.992;8.820;2022-10-26T06:32:23;16.50;70.60
48043;DHT22;33988;47.992;8.820;2022-10-26T06:37:54;16.60;70.60
48043;DHT22;33988;47.992;8.820;2022-10-26T06:40:23;16.50;70.50
48043;DHT22;33988;47.992;8.820;2022-10-26T06:42:50;16.50;70.50
48043;DHT22;33988;47.992;8.820;2022-10-26T06:45:18;16.50;70.40
48043;DHT22;33988;47.992;8.820;2022-10-26T06:48:07;16.50;70.40
48043;DHT22;33988;47.992;8.820;2022-10-26T06:50:52;16.60;70.60
48043;DHT22;33988;47.992;8.820;2022-10-26T06:56:59;16.50;70.90
48043;DHT22;33988;47.992;8.820;2022-10-26T06:59:36;16.50;70.70
48043;DHT22;33988;47.992;8.820;2022-10-26T07:02:07;16.60;70.90
48043;DHT22;33988;47.992;8.820;2022-10-26T07:04:35;16.60;70.80
48043;DHT22;33988;47.992;8.820;2022-10-26T07:07:02;16.60;70.80
48043;DHT22;33988;47.992;8.820;2022-10-26T07:09:29;16.60;70.80
48043;DHT22;33988;47.992;8.820;2022-10-26T07:11:58;16.70;70.90
48043;DHT22;33988;47.992;8.820;2022-10-26T07:14:25;16.70;70.90
48043;DHT22;33988;47.992;8.820;2022-10-26T07:16:52;16.70;70.70
48043;DHT22;33988;47.992;8.820;2022-10-26T07:19:19;16.70;70.60
48043;DHT22;33988;47.992;8.820;2022-10-26T07:21:46;16.70;70.50
48043;DHT22;33988;47.992;8.820;2022-10-26T07:24:15;16.70;70.30
48043;DHT22;33988;47.992;8.820;2022-10-26T07:26:42;16.70;70.20
48043;DHT22;33988;47.992;8.820;2022-10-26T07:29:09;16.70;70.20
48043;DHT22;33988;47.992;8.820;2022-10-26T07:31:36;16.60;70.10
48043;DHT22;33988;47.992;8.820;2022-10-26T07:34:05;16.60;70.20
48043;DHT22;33988;47.992;8.820;2022-10-26T07:36:35;16.60;70.30
48043;DHT22;33988;47.992;8.820;2022-10-26T07:39:05;16.60;70.40
48043;DHT22;33988;47.992;8.820;2022-10-26T07:41:33;16.60;70.50
48043;DHT22;33988;47.992;8.820;2022-10-26T07:44:02;16.60;70.60
48043;DHT22;33988;47.992;8.820;2022-10-26T07:46:29;16.60;70.70
48043;DHT22;33988;47.992;8.820;2022-10-26T07:48:59;16.70;70.80
48043;DHT22;33988;47.992;8.820;2022-10-26T07:51:28;16.70;71.30
48043;DHT22;33988;47.992;8.820;2022-10-26T07:53:55;16.80;72.40
48043;DHT22;33988;47.992;8.820;2022-10-26T07:56:27;17.00;73.30
48043;DHT22;33988;47.992;8.820;2022-10-26T07:58:54;17.30;73.50
48043;DHT22;33988;47.992;8.820;2022-10-26T08:01:24;17.60;72.90
48043;DHT22;33988;47.992;8.820;2022-10-26T08:03:52;17.90;72.10
48043;DHT22;33988;47.992;8.820;2022-10-26T08:06:23;18.10;71.20
48043;DHT22;33988;47.992;8.820;2022-10-26T08:08:50;18.30;70.50
48043;DHT22;33988;47.992;8.820;2022-10-26T08:11:17;18.40;70.10
48043;DHT22;33988;47.992;8.820;2022-10-26T08:13:44;18.50;69.90
48043;DHT22;33988;47.992;8.820;2022-10-26T08:16:12;18.60;70.30
48043;DHT22;33988;47.992;8.820;2022-10-26T08:18:39;18.80;70.90
48043;DHT22;33988;47.992;8.820;2022-10-26T08:21:08;19.00;71.30
48043;DHT22;33988;47.992;8.820;2022-10-26T08:23:51;19.40;71.30
48043;DHT22;33988;47.992;8.820;2022-10-26T08:26:18;19.80;71.40
48043;DHT22;33988;47.992;8.820;2022-10-26T08:28:47;20.30;71.00
48043;DHT22;33988;47.992;8.820;2022-10-26T08:31:15;20.80;70.20
48043;DHT22;33988;47.992;8.820;2022-10-26T08:33:44;21.20;69.20
48043;DHT22;33988;47.992;8.820;2022-10-26T08:36:11;21.60;67.80
48043;DHT22;33988;47.992;8.820;2022-10-26T08:38:40;21.90;66.20
48043;DHT22;33988;47.992;8.820;2022-10-26T08:41:07;22.10;64.80
48043;DHT22;33988;47.992;8.820;2022-10-26T08:43:41;22.20;63.50
48043;DHT22;33988;47.992;8.820;2022-10-26T08:46:21;22.20;62.70
48043;DHT22;33988;47.992;8.820;2022-10-26T08:48:54;22.10;62.50
48043;DHT22;33988;47.992;8.820;2022-10-26T08:51:41;22.00;62.30
48043;DHT22;33988;47.992;8.820;2022-10-26T08:57:20;21.70;62.10
48043;DHT22;33988;47.992;8.820;2022-10-26T09:00:03;21.70;62.30
48043;DHT22;33988;47.992;8.820;2022-10-26T09:02:31;21.50;62.30
48043;DHT22;33988;47.992;8.820;2022-10-26T09:04:59;21.40;62.50
48043;DHT22;33988;47.992;8.820;2022-10-26T09:13:21;21.10;62.80
48043;DHT22;33988;47.992;8.820;2022-10-26T09:16:22;21.00;63.10
48043;DHT22;33988;47.992;8.820;2022-10-26T09:24:54;20.90;63.80
48043;DHT22;33988;47.992;8.820;2022-10-26T09:27:39;20.80;64.00
48043;DHT22;33988;47.992;8.820;2022-10-26T09:30:14;20.80;64.10
48043;DHT22;33988;47.992;8.820;2022-10-26T09:32:49;20.80;64.20
48043;DHT22;33988;47.992;8.820;2022-10-26T09:35:42;20.80;64.30
48043;DHT22;33988;47.992;8.820;2022-10-26T09:40:55;20.80;64.40
48043;DHT22;33988;47.992;8.820;2022-10-26T09:49:20;20.90;64.70
48043;DHT22;33988;47.992;8.820;2022-10-26T09:51:57;20.90;64.60
48043;DHT22;33988;47.992;8.820;2022-10-26T09:54:24;21.00;64.50
48043;DHT22;33988;47.992;8.820;2022-10-26T09:56:55;21.00;64.60
48043;DHT22;33988;47.992;8.820;2022-10-26T09:59:33;21.10;64.60
48043;DHT22;33988;47.992;8.820;2022-10-26T10:02:32;21.00;64.50
48043;DHT22;33988;47.992;8.820;2022-10-26T10:05:07;21.00;64.30
48043;DHT22;33988;47.992;8.820;2022-10-26T10:08:21;21.10;64.80
48043;DHT22;33988;47.992;8.820;2022-10-26T10:11:02;21.10;64.50
48043;DHT22;33988;47.992;8.820;2022-10-26T10:13:37;21.10;64.20
48043;DHT22;33988;47.992;8.820;2022-10-26T10:16:25;21.10;64.10
48043;DHT22;33988;47.992;8.820;2022-10-26T10:18:59;21.10;63.70
48043;DHT22;33988;47.992;8.820;2022-10-26T10:21:43;21.10;63.90
48043;DHT22;33988;47.992;8.820;2022-10-26T10:24:31;21.10;63.60
48043;DHT22;33988;47.992;8.820;2022-10-26T10:29:46;21.20;63.70
48043;DHT22;33988;47.992;8.820;2022-10-26T10:32:22;21.20;63.50
48043;DHT22;33988;47.992;8.820;2022-10-26T10:34:54;21.20;63.50
48043;DHT22;33988;47.992;8.820;2022-10-26T10:37:25;21.20;63.60
48043;DHT22;33988;47.992;8.820;2022-10-26T10:40:08;21.30;63.70
48043;DHT22;33988;47.992;8.820;2022-10-26T10:42:52;21.30;63.70
48043;DHT22;33988;47.992;8.820;2022-10-26T10:45:25;21.30;63.80
48043;DHT22;33988;47.992;8.820;2022-10-26T10:50:51;21.30;63.40
48043;DHT22;33988;47.992;8.820;2022-10-26T10:56:18;21.20;63.90
48043;DHT22;33988;47.992;8.820;2022-10-26T11:02:16;21.40;63.20
48043;DHT22;33988;47.992;8.820;2022-10-26T11:08:09;21.40;63.20
48043;DHT22;33988;47.992;8.820;2022-10-26T11:10:46;21.50;63.40
48043;DHT22;33988;47.992;8.820;2022-10-26T11:13:46;21.50;63.10
48043;DHT22;33988;47.992;8.820;2022-10-26T11:16:46;21.50;63.00
48043;DHT22;33988;47.992;8.820;2022-10-26T11:19:31;21.50;63.10
48043;DHT22;33988;47.992;8.820;2022-10-26T11:22:12;21.50;63.20
48043;DHT22;33988;47.992;8.820;2022-10-26T11:24:48;21.60;63.30
48043;DHT22;33988;47.992;8.820;2022-10-26T11:27:30;21.60;63.10
48043;DHT22;33988;47.992;8.820;2022-10-26T11:30:17;21.70;63.00
48043;DHT22;33988;47.992;8.820;2022-10-26T11:33:00;21.70;62.80
48043;DHT22;33988;47.992;8.820;2022-10-26T11:35:35;21.80;62.90
48043;DHT22;33988;47.992;8.820;2022-10-26T11:41:36;22.00;62.80
48043;DHT22;33988;47.992;8.820;2022-10-26T11:44:15;22.00;62.70
48043;DHT22;33988;47.992;8.820;2022-10-26T11:46:52;22.00;62.20
48043;DHT22;33988;47.992;8.820;2022-10-26T11:54:41;22.20;62.10
48043;DHT22;33988;47.992;8.820;2022-10-26T11:57:14;22.20;62.00
48043;DHT22;33988;47.992;8.820;2022-10-26T11:59:49;22.30;61.90
48043;DHT22;33988;47.992;8.820;2022-10-26T12:02:23;22.30;61.80
48043;DHT22;33988;47.992;8.820;2022-10-26T12:05:04;22.30;61.90
48043;DHT22;33988;47.992;8.820;2022-10-26T12:07:37;22.40;61.70
48043;DHT22;33988;47.992;8.820;2022-10-26T12:10:35;22.40;61.70
48043;DHT22;33988;47.992;8.820;2022-10-26T12:22:46;22.60;61.30
48043;DHT22;33988;47.992;8.820;2022-10-26T12:32:54;22.80;60.80
48043;DHT22;33988;47.992;8.820;2022-10-26T12:35:43;22.90;60.50
48043;DHT22;33988;47.992;8.820;2022-10-26T12:43:40;23.00;60.50
48043;DHT22;33988;47.992;8.820;2022-10-26T12:48:44;22.90;60.80
48043;DHT22;33988;47.992;8.820;2022-10-26T12:56:28;23.30;59.70
48043;DHT22;33988;47.992;8.820;2022-10-26T12:59:09;23.40;59.50
48043;DHT22;33988;47.992;8.820;2022-10-26T13:09:41;23.50;58.80
48043;DHT22;33988;47.992;8.820;2022-10-26T13:12:11;23.60;59.20
48043;DHT22;33988;47.992;8.820;2022-10-26T13:15:01;23.70;59.30
48043;DHT22;33988;47.992;8.820;2022-10-26T13:17:31;23.70;58.90
48043;DHT22;33988;47.992;8.820;2022-10-26T13:20:05;23.70;59.00
48043;DHT22;33988;47.992;8.820;2022-10-26T13:22:44;23.70;59.00
48043;DHT22;33988;47.992;8.820;2022-10-26T13:25:20;23.70;58.90
48043;DHT22;33988;47.992;8.820;2022-10-26T13:28:04;23.70;58.80
48043;DHT22;33988;47.992;8.820;2022-10-26T13:33:00;23.70;58.80
48043;DHT22;33988;47.992;8.820;2022-10-26T13:35:30;23.70;58.70
48043;DHT22;33988;47.992;8.820;2022-10-26T13:37:59;23.70;58.80
48043;DHT22;33988;47.992;8.820;2022-10-26T13:40:35;23.70;58.70
48043;DHT22;33988;47.992;8.820;2022-10-26T13:43:06;23.60;58.60
48043;DHT22;33988;47.992;8.820;2022-10-26T13:45:57;23.60;58.60
48043;DHT22;33988;47.992;8.820;2022-10-26T13:48:39;23.50;58.70
48043;DHT22;33988;47.992;8.820;2022-10-26T13:51:15;23.50;58.70
48043;DHT22;33988;47.992;8.820;2022-10-26T13:54:06;23.30;59.20
48043;DHT22;33988;47.992;8.820;2022-10-26T13:59:37;23.40;58.90
48043;DHT22;33988;47.992;8.820;2022-10-26T14:02:19;23.40;58.80
48043;DHT22;33988;47.992;8.820;2022-10-26T14:04:58;23.40;58.90
48043;DHT22;33988;47.992;8.820;2022-10-26T14:12:59;23.30;58.40
48043;DHT22;33988;47.992;8.820;2022-10-26T14:15:29;23.30;58.90
48043;DHT22;33988;47.992;8.820;2022-10-26T14:17:59;23.20;58.90
48043;DHT22;33988;47.992;8.820;2022-10-26T14:20:30;23.20;59.60
48043;DHT22;33988;47.992;8.820;2022-10-26T14:22:58;23.20;59.00
48043;DHT22;33988;47.992;8.820;2022-10-26T14:25:28;23.20;59.00
48043;DHT22;33988;47.992;8.820;2022-10-26T14:28:31;23.20;59.00
48043;DHT22;33988;47.992;8.820;2022-10-26T14:33:46;23.10;59.00
48043;DHT22;33988;47.992;8.820;2022-10-26T14:36:14;23.10;59.00
48043;DHT22;33988;47.992;8.820;2022-10-26T14:38:45;23.10;59.00
48043;DHT22;33988;47.992;8.820;2022-10-26T14:41:16;23.10;58.90
48043;DHT22;33988;47.992;8.820;2022-10-26T14:43:44;23.00;58.80
48043;DHT22;33988;47.992;8.820;2022-10-26T14:46:17;23.00;58.60
48043;DHT22;33988;47.992;8.820;2022-10-26T14:48:55;23.00;58.30
48043;DHT22;33988;47.992;8.820;2022-10-26T14:51:27;22.90;58.40
48043;DHT22;33988;47.992;8.820;2022-10-26T14:54:01;22.80;58.50
48043;DHT22;33988;47.992;8.820;2022-10-26T14:56:30;22.80;58.20
48043;DHT22;33988;47.992;8.820;2022-10-26T14:59:27;22.50;58.60
48043;DHT22;33988;47.992;8.820;2022-10-26T15:04:38;22.60;58.00
48043;DHT22;33988;47.992;8.820;2022-10-26T15:09:47;22.50;58.50
48043;DHT22;33988;47.992;8.820;2022-10-26T15:12:34;22.50;58.70
48043;DHT22;33988;47.992;8.820;2022-10-26T15:17:46;22.40;58.90
48043;DHT22;33988;47.992;8.820;2022-10-26T15:20:21;22.40;59.10
48043;DHT22;33988;47.992;8.820;2022-10-26T15:22:52;22.40;59.20
48043;DHT22;33988;47.992;8.820;2022-10-26T15:25:26;22.30;59.10
48043;DHT22;33988;47.992;8.820;2022-10-26T15:28:05;22.30;59.30
48043;DHT22;33988;47.992;8.820;2022-10-26T15:30:34;22.30;59.70
48043;DHT22;33988;47.992;8.820;2022-10-26T15:33:18;22.30;59.50
48043;DHT22;33988;47.992;8.820;2022-10-26T15:35:48;22.20;59.50
48043;DHT22;33988;47.992;8.820;2022-10-26T15:38:18;22.20;59.60
48043;DHT22;33988;47.992;8.820;2022-10-26T15:40:47;22.20;59.70
48043;DHT22;33988;47.992;8.820;2022-10-26T15:43:16;22.20;59.80
48043;DHT22;33988;47.992;8.820;2022-10-26T15:45:45;22.10;59.80
48043;DHT22;33988;47.992;8.820;2022-10-26T15:48:25;22.10;59.90
48043;DHT22;33988;47.992;8.820;2022-10-26T15:50:59;22.10;60.10
48043;DHT22;33988;47.992;8.820;2022-10-26T15:53:26;22.00;60.10
48043;DHT22;33988;47.992;8.820;2022-10-26T15:55:55;21.90;60.10
48043;DHT22;33988;47.992;8.820;2022-10-26T15:58:25;21.90;60.10
48043;DHT22;33988;47.992;8.820;2022-10-26T16:00:53;21.80;60.30
48043;DHT22;33988;47.992;8.820;2022-10-26T16:03:24;21.80;60.60
48043;DHT22;33988;47.992;8.820;2022-10-26T16:06:00;21.70;60.60
48043;DHT22;33988;47.992;8.820;2022-10-26T16:08:29;21.60;60.70
48043;DHT22;33988;47.992;8.820;2022-10-26T16:10:59;21.50;60.70
48043;DHT22;33988;47.992;8.820;2022-10-26T16:13:26;21.50;60.80
48043;DHT22;33988;47.992;8.820;2022-10-26T16:15:58;21.40;60.90
48043;DHT22;33988;47.992;8.820;2022-10-26T16:18:24;21.30;61.00
48043;DHT22;33988;47.992;8.820;2022-10-26T16:20:51;21.20;61.10
48043;DHT22;33988;47.992;8.820;2022-10-26T16:23:19;21.10;61.20
48043;DHT22;33988;47.992;8.820;2022-10-26T16:25:46;21.00;61.40
48043;DHT22;33988;47.992;8.820;2022-10-26T16:28:15;20.90;61.50
48043;DHT22;33988;47.992;8.820;2022-10-26T16:30:42;20.80;61.60
48043;DHT22;33988;47.992;8.820;2022-10-26T16:33:12;20.70;61.80
48043;DHT22;33988;47.992;8.820;2022-10-26T16:35:42;20.60;61.90
48043;DHT22;33988;47.992;8.820;2022-10-26T16:38:11;20.50;62.10
48043;DHT22;33988;47.992;8.820;2022-10-26T16:40:38;20.50;62.40
48043;DHT22;33988;47.992;8.820;2022-10-26T16:43:08;20.40;62.60
48043;DHT22;33988;47.992;8.820;2022-10-26T16:45:43;20.30;62.90
48043;DHT22;33988;47.992;8.820;2022-10-26T16:48:10;20.30;63.20
48043;DHT22;33988;47.992;8.820;2022-10-26T16:50:41;20.20;63.30
48043;DHT22;33988;47.992;8.820;2022-10-26T16:53:08;20.10;63.50
48043;DHT22;33988;47.992;8.820;2022-10-26T16:55:35;20.10;63.60
48043;DHT22;33988;47.992;8.820;2022-10-26T16:58:05;20.10;63.60
48043;DHT22;33988;47.992;8.820;2022-10-26T17:00:34;20.10;63.70
48043;DHT22;33988;47.992;8.820;2022-10-26T17:03:02;20.00;63.70
48043;DHT22;33988;47.992;8.820;2022-10-26T17:05:29;20.00;63.90
48043;DHT22;33988;47.992;8.820;2022-10-26T17:07:56;20.00;63.90
48043;DHT22;33988;47.992;8.820;2022-10-26T17:10:23;19.90;63.80
48043;DHT22;33988;47.992;8.820;2022-10-26T17:12:52;19.90;63.90
48043;DHT22;33988;47.992;8.820;2022-10-26T17:15:19;19.80;63.80
48043;DHT22;33988;47.992;8.820;2022-10-26T17:17:47;19.80;63.90
48043;DHT22;33988;47.992;8.820;2022-10-26T17:20:17;19.70;63.90
48043;DHT22;33988;47.992;8.820;2022-10-26T17:22:44;19.70;64.00
48043;DHT22;33988;47.992;8.820;2022-10-26T17:25:10;19.60;63.90
48043;DHT22;33988;47.992;8.820;2022-10-26T17:27:37;19.60;64.00
48043;DHT22;33988;47.992;8.820;2022-10-26T17:30:14;19.50;63.90
48043;DHT22;33988;47.992;8.820;2022-10-26T17:32:41;19.50;64.00
48043;DHT22;33988;47.992;8.820;2022-10-26T17:35:10;19.40;64.20
48043;DHT22;33988;47.992;8.820;2022-10-26T17:37:41;19.30;64.20
48043;DHT22;33988;47.992;8.820;2022-10-26T17:40:08;19.30;64.40
48043;DHT22;33988;47.992;8.820;2022-10-26T17:42:36;19.30;64.60
48043;DHT22;33988;47.992;8.820;2022-10-26T17:45:06;19.20;64.80
48043;DHT22;33988;47.992;8.820;2022-10-26T17:47:33;19.10;64.90
48043;DHT22;33988;47.992;8.820;2022-10-26T17:50:00;19.10;64.90
48043;DHT22;33988;47.992;8.820;2022-10-26T17:52:30;19.10;64.90
48043;DHT22;33988;47.992;8.820;2022-10-26T17:55:00;19.10;64.80
48043;DHT22;33988;47.992;8.820;2022-10-26T17:57:34;19.00;64.80
48043;DHT22;33988;47.992;8.820;2022-10-26T18:00:01;19.00;64.80
48043;DHT22;33988;47.992;8.820;2022-10-26T18:02:29;19.00;64.90
48043;DHT22;33988;47.992;8.820;2022-10-26T18:04:56;18.90;64.90
48043;DHT22;33988;47.992;8.820;2022-10-26T18:07:23;18.90;65.00
48043;DHT22;33988;47.992;8.820;2022-10-26T18:09:52;18.80;65.00
48043;DHT22;33988;47.992;8.820;2022-10-26T18:12:19;18.70;65.00
48043;DHT22;33988;47.992;8.820;2022-10-26T18:14:46;18.70;65.10
48043;DHT22;33988;47.992;8.820;2022-10-26T18:17:13;18.60;65.00
48043;DHT22;33988;47.992;8.820;2022-10-26T18:19:42;18.60;65.10
48043;DHT22;33988;47.992;8.820;2022-10-26T18:22:12;18.60;65.10
48043;DHT22;33988;47.992;8.820;2022-10-26T18:24:41;18.50;65.10
48043;DHT22;33988;47.992;8.820;2022-10-26T18:27:11;18.50;65.20
48043;DHT22;33988;47.992;8.820;2022-10-26T18:29:38;18.40;65.10
48043;DHT22;33988;47.992;8.820;2022-10-26T18:32:07;18.40;65.20
48043;DHT22;33988;47.992;8.820;2022-10-26T18:34:37;18.40;65.30